sensor_id;sensor_type;location;lat;lon;timestamp;P1;durP1;ratioP1;P2;durP2;ratioP2
14233;SDS011;36077;53.824;9.950;2022-10-16T15:51:11;3.87;;;1.23;;
14233;SDS011;36077;53.824;9.950;2022-10-16T15:53:39;5.27;;;1.97;;
14233;SDS011;36077;53.824;9.950;2022-10-16T15:56:06;5.27;;;1.43;;
14233;SDS011;36077;53.824;9.950;2022-10-16T15:58:34;7.53;;;1.70;;
14233;SDS011;36077;53.824;9.950;2022-10-16T16:01:01;4.40;;;1.80;;
14233;SDS011;36077;53.824;9.950;2022-10-16T16:03:30;5.00;;;1.20;;
14233;SDS011;36077;53.824;9.950;2022-10-16T16:05:57;6.20;;;2.23;;
14233;SDS011;36077;53.824;9.950;2022-10-16T16:08:25;8.40;;;1.80;;
14233;SDS011;36077;53.824;9.950;2022-10-16T16:10:58;7.60;;;1.30;;
14233;SDS011;36077;53.824;9.950;2022-10-16T16:13:25;4.77;;;1.70;;
14233;SDS011;36077;53.824;9.950;2022-10-16T16:15:52;4.30;;;2.30;;
14233;SDS011;36077;53.824;9.950;2022-10-16T16:18:18;2.50;;;1.40;;
14233;SDS011;36077;53.824;9.950;2022-10-16T16:20:45;5.87;;;1.47;;
14233;SDS011;36077;53.824;9.950;2022-10-16T16:23:12;7.13;;;1.33;;
14233;SDS011;36077;53.824;9.950;2022-10-16T16:25:40;6.53;;;1.57;;
14233;SDS011;36077;53.824;9.950;2022-10-16T16:28:08;8.77;;;1.67;;
14233;SDS011;36077;53.824;9.950;2022-10-16T16:30:39;6.60;;;1.57;;
14233;SDS011;36077;53.824;9.950;2022-10-16T16:33:06;4.83;;;1.63;;
14233;SDS011;36077;53.824;9.950;2022-10-16T16:35:33;6.63;;;1.97;;
14233;SDS011;36077;53.824;9.950;2022-10-16T16:37:59;4.00;;;1.50;;
14233;SDS011;36077;53.824;9.950;2022-10-16T16:40:27;6.77;;;1.77;;
14233;SDS011;36077;53.824;9.950;2022-10-16T16:42:55;8.63;;;1.40;;
14233;SDS011;36077;53.824;9.950;2022-10-16T16:45:22;6.47;;;1.80;;
14233;SDS011;36077;53.824;9.950;2022-10-16T16:47:50;6.33;;;1.73;;
14233;SDS011;36077;53.824;9.950;2022-10-16T16:50:17;9.17;;;2.40;;
14233;SDS011;36077;53.824;9.950;2022-10-16T16:52:44;6.30;;;1.70;;
14233;SDS011;36077;53.824;9.950;2022-10-16T16:55:11;5.90;;;1.73;;
14233;SDS011;36077;53.824;9.950;2022-10-16T16:57:37;5.77;;;1.67;;
14233;SDS011;36077;53.824;9.950;2022-10-16T17:00:06;7.37;;;1.67;;
14233;SDS011;36077;53.824;9.950;2022-10-16T17:02:34;3.93;;;1.47;;
14233;SDS011;36077;53.824;9.950;2022-10-16T17:05:00;6.20;;;1.63;;
14233;SDS011;36077;53.824;9.950;2022-10-16T17:07:30;4.80;;;1.70;;
14233;SDS011;36077;53.824;9.950;2022-10-16T17:09:57;8.20;;;2.10;;
14233;SDS011;36077;53.824;9.950;2022-10-16T17:12:24;9.50;;;2.20;;
14233;SDS011;36077;53.824;9.950;2022-10-16T17:14:51;7.97;;;1.87;;
14233;SDS011;36077;53.824;9.950;2022-10-16T17:17:19;5.37;;;1.67;;
14233;SDS011;36077;53.824;9.950;2022-10-16T17:19:46;9.97;;;1.97;;
14233;SDS011;36077;53.824;9.950;2022-10-16T17:22:15;7.63;;;1.73;;
14233;SDS011;36077;53.824;9.950;2022-10-16T17:24:41;1.47;;;1.30;;
14233;SDS011;36077;53.824;9.950;2022-10-16T17:27:08;5.47;;;1.87;;
14233;SDS011;36077;53.824;9.950;2022-10-16T17:29:36;7.13;;;1.80;;
14233;SDS011;36077;53.824;9.950;2022-10-16T17:32:03;5.90;;;1.63;;
14233;SDS011;36077;53.824;9.950;2022-10-16T17:34:31;7.87;;;1.87;;
14233;SDS011;36077;53.824;9.950;2022-10-16T17:36:59;7.47;;;1.57;;
14233;SDS011;36077;53.824;9.950;2022-10-16T17:39:26;12.03;;;1.93;;
14233;SDS011;36077;53.824;9.950;2022-10-16T17:41:53;7.93;;;2.37;;
14233;SDS011;36077;53.824;9.950;2022-10-16T17:44:19;7.27;;;1.70;;
14233;SDS011;36077;53.824;9.950;2022-10-16T17:46:48;8.53;;;1.60;;
14233;SDS011;36077;53.824;9.950;2022-10-16T17:49:16;8.57;;;1.73;;
14233;SDS011;36077;53.824;9.950;2022-10-16T17:51:44;7.20;;;1.63;;
14233;SDS011;36077;53.824;9.950;2022-10-16T17:54:11;7.90;;;2.50;;
14233;SDS011;36077;53.824;9.950;2022-10-16T17:56:39;2.63;;;1.30;;
14233;SDS011;36077;53.824;9.950;2022-10-16T17:59:06;3.87;;;1.57;;
14233;SDS011;36077;53.824;9.950;2022-10-16T18:01:35;5.60;;;1.80;;
14233;SDS011;36077;53.824;9.950;2022-10-16T18:04:05;3.80;;;1.53;;
14233;SDS011;36077;53.824;9.950;2022-10-16T18:06:33;4.73;;;1.90;;
14233;SDS011;36077;53.824;9.950;2022-10-16T18:09:02;3.13;;;1.40;;
14233;SDS011;36077;53.824;9.950;2022-10-16T18:11:31;3.30;;;1.33;;
14233;SDS011;36077;53.824;9.950;2022-10-16T18:14:01;12.40;;;1.70;;
14233;SDS011;36077;53.824;9.950;2022-10-16T18:16:31;10.63;;;1.97;;
14233;SDS011;36077;53.824;9.950;2022-10-16T18:19:00;6.47;;;1.97;;
14233;SDS011;36077;53.824;9.950;2022-10-16T18:21:27;5.03;;;1.60;;
14233;SDS011;36077;53.824;9.950;2022-10-16T18:23:58;8.43;;;2.73;;
14233;SDS011;36077;53.824;9.950;2022-10-16T18:26:33;4.83;;;1.77;;
14233;SDS011;36077;53.824;9.950;2022-10-16T18:29:04;5.17;;;1.77;;
14233;SDS011;36077;53.824;9.950;2022-10-16T18:31:31;5.80;;;1.90;;
14233;SDS011;36077;53.824;9.950;2022-10-16T18:33:58;4.27;;;1.53;;
14233;SDS011;36077;53.824;9.950;2022-10-16T18:36:28;3.70;;;1.70;;
14233;SDS011;36077;53.824;9.950;2022-10-16T18:39:00;6.40;;;1.70;;
14233;SDS011;36077;53.824;9.950;2022-10-16T18:41:34;6.37;;;1.60;;
14233;SDS011;36077;53.824;9.950;2022-10-16T18:44:05;2.77;;;1.60;;
14233;SDS011;36077;53.824;9.950;2022-10-16T18:46:34;9.50;;;2.50;;
14233;SDS011;36077;53.824;9.950;2022-10-16T18:49:02;7.30;;;2.53;;
14233;SDS011;36077;53.824;9.950;2022-10-16T18:51:29;5.47;;;1.80;;
14233;SDS011;36077;53.824;9.950;2022-10-16T18:53:58;7.37;;;2.43;;
14233;SDS011;36077;53.824;9.950;2022-10-16T18:56:27;9.17;;;2.70;;
14233;SDS011;36077;53.824;9.950;2022-10-16T18:58:59;10.03;;;2.80;;
14233;SDS011;36077;53.824;9.950;2022-10-16T19:01:29;9.07;;;2.93;;
14233;SDS011;36077;53.824;9.950;2022-10-16T19:04:00;8.13;;;3.37;;
14233;SDS011;36077;53.824;9.950;2022-10-16T19:06:32;18.00;;;3.90;;
14233;SDS011;36077;53.824;9.950;2022-10-16T19:09:04;6.93;;;2.80;;
14233;SDS011;36077;53.824;9.950;2022-10-16T19:11:46;6.57;;;3.17;;
14233;SDS011;36077;53.824;9.950;2022-10-16T19:14:15;13.65;;;3.45;;
14233;SDS011;36077;53.824;9.950;2022-10-16T19:16:45;6.75;;;3.60;;
14233;SDS011;36077;53.824;9.950;2022-10-16T19:19:13;9.70;;;3.97;;
14233;SDS011;36077;53.824;9.950;2022-10-16T19:21:43;4.97;;;3.27;;
14233;SDS011;36077;53.824;9.950;2022-10-16T19:24:12;7.67;;;3.33;;
14233;SDS011;36077;53.824;9.950;2022-10-16T19:26:47;5.07;;;3.73;;
14233;SDS011;36077;53.824;9.950;2022-10-16T19:29:17;6.73;;;3.60;;
14233;SDS011;36077;53.824;9.950;2022-10-16T19:31:44;5.20;;;3.90;;
14233;SDS011;36077;53.824;9.950;2022-10-16T19:34:18;6.73;;;4.37;;
14233;SDS011;36077;53.824;9.950;2022-10-16T19:36:52;10.90;;;4.63;;
14233;SDS011;36077;53.824;9.950;2022-10-16T19:39:21;6.83;;;4.13;;
14233;SDS011;36077;53.824;9.950;2022-10-16T19:41:51;7.45;;;4.35;;
14233;SDS011;36077;53.824;9.950;2022-10-16T19:44:20;7.53;;;3.67;;
14233;SDS011;36077;53.824;9.950;2022-10-16T19:46:47;5.30;;;4.23;;
14233;SDS011;36077;53.824;9.950;2022-10-16T19:49:19;9.60;;;4.23;;
14233;SDS011;36077;53.824;9.950;2022-10-16T19:51:49;5.77;;;4.90;;
14233;SDS011;36077;53.824;9.950;2022-10-16T19:54:20;9.20;;;5.57;;
14233;SDS011;36077;53.824;9.950;2022-10-16T19:56:51;8.20;;;3.90;;
14233;SDS011;36077;53.824;9.950;2022-10-16T19:59:24;6.00;;;3.60;;
14233;SDS011;36077;53.824;9.950;2022-10-16T20:01:55;9.27;;;4.13;;
14233;SDS011;36077;53.824;9.950;2022-10-16T20:04:28;8.83;;;4.70;;
14233;SDS011;36077;53.824;9.950;2022-10-16T20:06:54;7.07;;;3.97;;
14233;SDS011;36077;53.824;9.950;2022-10-16T20:09:35;9.10;;;4.67;;
14233;SDS011;36077;53.824;9.950;2022-10-16T20:12:18;4.97;;;4.43;;
14233;SDS011;36077;53.824;9.950;2022-10-16T20:14:46;6.80;;;4.83;;
14233;SDS011;36077;53.824;9.950;2022-10-16T20:17:15;10.03;;;5.10;;
14233;SDS011;36077;53.824;9.950;2022-10-16T20:19:42;5.67;;;4.50;;
14233;SDS011;36077;53.824;9.950;2022-10-16T20:22:09;9.63;;;4.97;;
14233;SDS011;36077;53.824;9.950;2022-10-16T20:24:36;7.80;;;5.07;;
14233;SDS011;36077;53.824;9.950;2022-10-16T20:27:02;8.10;;;5.40;;
14233;SDS011;36077;53.824;9.950;2022-10-16T20:29:29;11.60;;;5.63;;
14233;SDS011;36077;53.824;9.950;2022-10-16T20:31:57;7.30;;;5.53;;
14233;SDS011;36077;53.824;9.950;2022-10-16T20:34:24;10.23;;;5.87;;
14233;SDS011;36077;53.824;9.950;2022-10-16T20:36:51;6.60;;;4.57;;
14233;SDS011;36077;53.824;9.950;2022-10-16T20:39:18;10.17;;;6.13;;
14233;SDS011;36077;53.824;9.950;2022-10-16T20:41:44;7.73;;;5.60;;
14233;SDS011;36077;53.824;9.950;2022-10-16T20:44:11;6.43;;;5.33;;
14233;SDS011;36077;53.824;9.950;2022-10-16T20:46:38;5.90;;;5.40;;
14233;SDS011;36077;53.824;9.950;2022-10-16T20:49:07;7.00;;;5.10;;
14233;SDS011;36077;53.824;9.950;2022-10-16T20:51:34;5.90;;;5.30;;
14233;SDS011;36077;53.824;9.950;2022-10-16T20:54:01;6.80;;;4.83;;
14233;SDS011;36077;53.824;9.950;2022-10-16T20:56:30;7.00;;;5.23;;
14233;SDS011;36077;53.824;9.950;2022-10-16T20:59:03;5.83;;;5.03;;
14233;SDS011;36077;53.824;9.950;2022-10-16T21:01:30;6.57;;;4.67;;
14233;SDS011;36077;53.824;9.950;2022-10-16T21:04:00;5.37;;;4.60;;
14233;SDS011;36077;53.824;9.950;2022-10-16T21:06:29;5.20;;;4.70;;
14233;SDS011;36077;53.824;9.950;2022-10-16T21:08:57;5.17;;;4.63;;
14233;SDS011;36077;53.824;9.950;2022-10-16T21:11:27;5.27;;;4.40;;
14233;SDS011;36077;53.824;9.950;2022-10-16T21:13:55;8.90;;;4.73;;
14233;SDS011;36077;53.824;9.950;2022-10-16T21:16:25;11.37;;;4.67;;
14233;SDS011;36077;53.824;9.950;2022-10-16T21:18:52;9.40;;;4.87;;
14233;SDS011;36077;53.824;9.950;2022-10-16T21:21:20;5.60;;;4.40;;
14233;SDS011;36077;53.824;9.950;2022-10-16T21:23:49;8.33;;;5.07;;
14233;SDS011;36077;53.824;9.950;2022-10-16T21:26:17;8.97;;;5.43;;
14233;SDS011;36077;53.824;9.950;2022-10-16T21:28:47;9.17;;;5.63;;
14233;SDS011;36077;53.824;9.950;2022-10-16T21:31:14;7.50;;;5.10;;
14233;SDS011;36077;53.824;9.950;2022-10-16T21:33:44;8.27;;;4.80;;
14233;SDS011;36077;53.824;9.950;2022-10-16T21:36:11;11.30;;;5.40;;
14233;SDS011;36077;53.824;9.950;2022-10-16T21:38:39;6.73;;;4.60;;
14233;SDS011;36077;53.824;9.950;2022-10-16T21:41:17;6.30;;;5.10;;
14233;SDS011;36077;53.824;9.950;2022-10-16T21:43:45;5.27;;;4.47;;
14233;SDS011;36077;53.824;9.950;2022-10-16T21:46:12;8.80;;;5.03;;
14233;SDS011;36077;53.824;9.950;2022-10-16T21:48:39;8.10;;;4.77;;
14233;SDS011;36077;53.824;9.950;2022-10-16T21:51:07;7.57;;;4.77;;
14233;SDS011;36077;53.824;9.950;2022-10-16T21:53:34;7.27;;;4.37;;
14233;SDS011;36077;53.824;9.950;2022-10-16T21:56:01;9.17;;;4.97;;
14233;SDS011;36077;53.824;9.950;2022-10-16T21:58:30;12.07;;;5.20;;
14233;SDS011;36077;53.824;9.950;2022-10-16T22:00:57;9.23;;;5.00;;
14233;SDS011;36077;53.824;9.950;2022-10-16T22:03:24;8.70;;;5.27;;
14233;SDS011;36077;53.824;9.950;2022-10-16T22:05:51;8.43;;;5.13;;
14233;SDS011;36077;53.824;9.950;2022-10-16T22:08:18;8.33;;;5.33;;
14233;SDS011;36077;53.824;9.950;2022-10-16T22:10:44;9.33;;;5.23;;
14233;SDS011;36077;53.824;9.950;2022-10-16T22:13:11;6.47;;;5.03;;
14233;SDS011;36077;53.824;9.950;2022-10-16T22:15:39;9.50;;;5.80;;
14233;SDS011;36077;53.824;9.950;2022-10-16T22:18:15;8.00;;;5.33;;
14233;SDS011;36077;53.824;9.950;2022-10-16T22:20:43;12.50;;;6.40;;
14233;SDS011;36077;53.824;9.950;2022-10-16T22:23:10;8.87;;;5.43;;
14233;SDS011;36077;53.824;9.950;2022-10-16T22:25:37;9.03;;;5.87;;
14233;SDS011;36077;53.824;9.950;2022-10-16T22:28:04;9.97;;;5.80;;
14233;SDS011;36077;53.824;9.950;2022-10-16T22:30:30;7.73;;;5.80;;
14233;SDS011;36077;53.824;9.950;2022-10-16T22:33:01;9.53;;;5.60;;
14233;SDS011;36077;53.824;9.950;2022-10-16T22:35:28;10.80;;;4.97;;
14233;SDS011;36077;53.824;9.950;2022-10-16T22:37:55;7.10;;;4.80;;
14233;SDS011;36077;53.824;9.950;2022-10-16T22:40:22;7.43;;;4.70;;
14233;SDS011;36077;53.824;9.950;2022-10-16T22:42:49;8.77;;;4.43;;
14233;SDS011;36077;53.824;9.950;2022-10-16T22:45:16;9.87;;;4.57;;
14233;SDS011;36077;53.824;9.950;2022-10-16T22:47:45;8.07;;;4.60;;
14233;SDS011;36077;53.824;9.950;2022-10-16T22:50:13;9.83;;;4.53;;
14233;SDS011;36077;53.824;9.950;2022-10-16T22:52:40;5.60;;;4.07;;
14233;SDS011;36077;53.824;9.950;2022-10-16T22:55:07;6.43;;;3.70;;
14233;SDS011;36077;53.824;9.950;2022-10-16T22:57:34;11.20;;;4.40;;
14233;SDS011;36077;53.824;9.950;2022-10-16T23:00:01;7.57;;;3.97;;
14233;SDS011;36077;53.824;9.950;2022-10-16T23:02:28;6.57;;;3.93;;
14233;SDS011;36077;53.824;9.950;2022-10-16T23:04:55;9.80;;;4.00;;
14233;SDS011;36077;53.824;9.950;2022-10-16T23:07:23;5.60;;;3.70;;
14233;SDS011;36077;53.824;9.950;2022-10-16T23:09:50;9.03;;;3.50;;
14233;SDS011;36077;53.824;9.950;2022-10-16T23:12:17;4.13;;;2.87;;
14233;SDS011;36077;53.824;9.950;2022-10-16T23:14:45;7.20;;;2.93;;
14233;SDS011;36077;53.824;9.950;2022-10-16T23:17:12;7.73;;;3.03;;
14233;SDS011;36077;53.824;9.950;2022-10-16T23:19:39;8.73;;;3.80;;
14233;SDS011;36077;53.824;9.950;2022-10-16T23:22:06;5.93;;;2.97;;
14233;SDS011;36077;53.824;9.950;2022-10-16T23:24:34;8.10;;;3.63;;
14233;SDS011;36077;53.824;9.950;2022-10-16T23:27:00;6.87;;;2.70;;
14233;SDS011;36077;53.824;9.950;2022-10-16T23:29:27;6.20;;;2.40;;
14233;SDS011;36077;53.824;9.950;2022-10-16T23:31:54;5.13;;;2.77;;
14233;SDS011;36077;53.824;9.950;2022-10-16T23:34:22;7.57;;;3.03;;
14233;SDS011;36077;53.824;9.950;2022-10-16T23:36:49;5.90;;;2.63;;
14233;SDS011;36077;53.824;9.950;2022-10-16T23:39:16;10.27;;;2.90;;
14233;SDS011;36077;53.824;9.950;2022-10-16T23:41:44;8.53;;;2.80;;
14233;SDS011;36077;53.824;9.950;2022-10-16T23:44:11;6.70;;;2.70;;
14233;SDS011;36077;53.824;9.950;2022-10-16T23:46:38;4.07;;;2.60;;
14233;SDS011;36077;53.824;9.950;2022-10-16T23:49:04;6.07;;;2.87;;
14233;SDS011;36077;53.824;9.950;2022-10-16T23:51:31;5.10;;;2.40;;
14233;SDS011;36077;53.824;9.950;2022-10-16T23:53:58;4.43;;;2.43;;
14233;SDS011;36077;53.824;9.950;2022-10-16T23:56:25;8.27;;;2.90;;
14233;SDS011;36077;53.824;9.950;2022-10-16T23:58:53;5.13;;;2.50;;
